createdAt,value
2023-05-14T00:01:29.271Z,99959.63
2023-05-14T00:03:56.498Z,99956.28
2023-05-14T00:06:23.278Z,99950.63
2023-05-14T00:08:50.207Z,99932.59
2023-05-14T00:11:17.186Z,99951.91
2023-05-14T00:13:44.078Z,99948.63
2023-05-14T00:16:11.925Z,99946.53
2023-05-14T00:18:39.054Z,99945.47
2023-05-14T00:21:06.085Z,99945.94
2023-05-14T00:23:33.120Z,99928.75
2023-05-14T00:25:59.974Z,99963.47
2023-05-14T00:28:26.919Z,99947.28
2023-05-14T00:30:53.963Z,99943.81
2023-05-14T00:33:20.790Z,99945.47
2023-05-14T00:35:47.995Z,99945.69
2023-05-14T00:38:19.211Z,99945.47
2023-05-14T00:40:51.448Z,99930.44
2023-05-14T00:43:19.740Z,99937.22
2023-05-14T00:45:47.810Z,99933.53
2023-05-14T00:48:14.759Z,99937.84
2023-05-14T00:50:42.318Z,99933.81
2023-05-14T00:53:10.745Z,99943.44
2023-05-14T00:55:42.376Z,99941.22
2023-05-14T00:58:13.720Z,99925.34
2023-05-14T01:00:41.809Z,99912.69
2023-05-14T01:03:09.738Z,99926.59
2023-05-14T01:05:47.393Z,99907.38
2023-05-14T01:08:43.304Z,99928.41
2023-05-14T01:11:20.058Z,99837.91
2023-05-14T01:14:17.858Z,99933.84
2023-05-14T01:16:46.314Z,99933.91
2023-05-14T01:19:27.574Z,99931.56
2023-05-14T01:21:54.553Z,99924.69
2023-05-14T01:24:21.329Z,99918.13
2023-05-14T01:26:48.275Z,99923.06
2023-05-14T01:29:28.556Z,99924.69
2023-05-14T01:31:58.911Z,99916.50
2023-05-14T01:34:28.454Z,99922.88
2023-05-14T01:36:57.441Z,99928.88
2023-05-14T01:39:26.859Z,99927.53
2023-05-14T01:41:55.279Z,99920.88
2023-05-14T01:44:22.297Z,99921.94
2023-05-14T01:46:49.218Z,99899.22
2023-05-14T01:49:18.160Z,99921.66
2023-05-14T01:51:45.879Z,99908.97
2023-05-14T01:54:12.788Z,99893.94
2023-05-14T01:56:39.796Z,99917.09
2023-05-14T01:59:07.056Z,99914.41
2023-05-14T02:01:34.275Z,99923.16
2023-05-14T02:04:01.289Z,99926.22
2023-05-14T02:06:28.277Z,99911.19
2023-05-14T02:08:56.131Z,99911.72
2023-05-14T02:11:23.146Z,99903.53
2023-05-14T02:13:50.113Z,99918.72
2023-05-14T02:16:17.266Z,99912.66
2023-05-14T02:18:44.119Z,99926.31
2023-05-14T02:21:11.056Z,99921.34
2023-05-14T02:23:41.441Z,99927.38
2023-05-14T02:26:10.963Z,99918.84
2023-05-14T02:28:38.200Z,99920.00
2023-05-14T02:31:05.140Z,99926.91
2023-05-14T02:33:32.274Z,99922.88
2023-05-14T02:35:59.190Z,99930.81
2023-05-14T02:38:26.800Z,99922.41
2023-05-14T02:40:56.350Z,99939.41
2023-05-14T02:43:23.554Z,99925.44
2023-05-14T02:45:50.412Z,99919.78
2023-05-14T02:48:17.544Z,99931.53
2023-05-14T02:50:44.394Z,99927.38
2023-05-14T02:53:11.701Z,99919.06
2023-05-14T02:55:38.619Z,99924.81
2023-05-14T02:58:05.733Z,99933.56
2023-05-14T03:00:32.786Z,99917.91
2023-05-14T03:03:00.231Z,99898.75
2023-05-14T03:05:27.625Z,99908.22
2023-05-14T03:07:55.065Z,99905.41
2023-05-14T03:10:22.032Z,99908.91
2023-05-14T03:12:49.602Z,99926.63
2023-05-14T03:15:16.376Z,99931.25
2023-05-14T03:17:43.617Z,99929.31
2023-05-14T03:20:11.405Z,99919.44
2023-05-14T03:22:38.255Z,99927.09
2023-05-14T03:25:05.693Z,99916.47
2023-05-14T03:27:33.868Z,99907.91
2023-05-14T03:30:01.003Z,99916.31
2023-05-14T03:32:27.907Z,99926.28
2023-05-14T03:34:55.035Z,99934.78
2023-05-14T03:37:22.113Z,99938.78
2023-05-14T03:39:48.980Z,99932.78
2023-05-14T03:42:15.944Z,99935.75
2023-05-14T03:44:42.860Z,99930.53
2023-05-14T03:47:09.677Z,99937.59
2023-05-14T03:49:37.022Z,99938.72
2023-05-14T03:52:04.621Z,99928.25
2023-05-14T03:54:31.848Z,99928.88
2023-05-14T03:56:59.848Z,99926.25
2023-05-14T03:59:26.717Z,99916.69
2023-05-14T04:01:54.107Z,99930.72
2023-05-14T04:04:21.306Z,99933.09
2023-05-14T04:06:48.227Z,99940.88
2023-05-14T04:09:15.045Z,99945.59
2023-05-14T04:11:41.953Z,99957.97
2023-05-14T04:14:09.243Z,99961.56
2023-05-14T04:16:36.064Z,99961.38
2023-05-14T04:19:06.722Z,99972.59
2023-05-14T04:21:33.719Z,99965.78
2023-05-14T04:24:00.631Z,99954.97
2023-05-14T04:26:27.511Z,99944.72
2023-05-14T04:28:54.500Z,99938.16
2023-05-14T04:31:21.648Z,99939.44
2023-05-14T04:33:48.671Z,99942.16
2023-05-14T04:36:16.135Z,99944.06
2023-05-14T04:38:43.103Z,99938.94
2023-05-14T04:41:10.198Z,99933.94
2023-05-14T04:43:37.010Z,99934.31
2023-05-14T04:46:04.038Z,99927.28
2023-05-14T04:48:31.108Z,99921.88
2023-05-14T04:50:58.251Z,99937.06
2023-05-14T04:53:25.226Z,99919.81
2023-05-14T04:55:52.203Z,99934.69
2023-05-14T04:58:19.369Z,99933.13
2023-05-14T05:00:46.428Z,99926.66
2023-05-14T05:03:13.716Z,99929.31
2023-05-14T05:05:40.888Z,99916.41
2023-05-14T05:08:07.789Z,99928.53
2023-05-14T05:10:34.840Z,99927.28
2023-05-14T05:13:03.138Z,99928.78
2023-05-14T05:15:30.031Z,99933.38
2023-05-14T05:17:57.215Z,99932.59
2023-05-14T05:20:25.285Z,99924.44
2023-05-14T05:22:52.261Z,99931.47
2023-05-14T05:25:19.173Z,99936.41
2023-05-14T05:27:46.184Z,99934.75
2023-05-14T05:30:13.443Z,99925.47
2023-05-14T05:32:40.742Z,99921.81
2023-05-14T05:35:08.090Z,99921.31
2023-05-14T05:37:35.030Z,99938.06
2023-05-14T05:40:01.993Z,99928.75
2023-05-14T05:42:28.831Z,99938.34
2023-05-14T05:44:56.310Z,99935.69
2023-05-14T05:47:23.292Z,99932.25
2023-05-14T05:49:50.456Z,99926.31
2023-05-14T05:52:17.433Z,99934.78
2023-05-14T05:54:44.500Z,99938.41
2023-05-14T05:57:11.421Z,99943.03
2023-05-14T05:59:38.573Z,99933.47
2023-05-14T06:02:05.938Z,99940.50
2023-05-14T06:04:32.985Z,99940.25
2023-05-14T06:06:59.904Z,99945.06
2023-05-14T06:09:26.948Z,99943.50
2023-05-14T06:11:53.691Z,99935.44
2023-05-14T06:14:20.734Z,99941.94
2023-05-14T06:16:47.634Z,99947.66
2023-05-14T06:19:15.258Z,99952.75
2023-05-14T06:21:42.216Z,99950.31
2023-05-14T06:24:09.408Z,99956.94
2023-05-14T06:26:36.524Z,99958.81
2023-05-14T06:29:03.300Z,99959.56
2023-05-14T06:31:30.428Z,99964.69
2023-05-14T06:33:57.452Z,99955.28
2023-05-14T06:36:24.468Z,99968.22
2023-05-14T06:38:51.299Z,99974.09
2023-05-14T06:41:18.364Z,99978.84
2023-05-14T06:43:45.205Z,99975.38
2023-05-14T06:46:12.387Z,99984.75
2023-05-14T06:48:39.239Z,99984.72
2023-05-14T06:51:06.543Z,99973.22
2023-05-14T06:53:33.643Z,99977.75
2023-05-14T06:56:00.785Z,99965.59
2023-05-14T06:58:27.694Z,99982.50
2023-05-14T07:00:54.757Z,99982.00
2023-05-14T07:03:22.338Z,99969.88
2023-05-14T07:05:49.497Z,99964.94
2023-05-14T07:08:16.421Z,99977.44
2023-05-14T07:10:43.249Z,99970.72
2023-05-14T07:13:10.238Z,99965.25
2023-05-14T07:15:37.219Z,99955.00
2023-05-14T07:18:04.376Z,99958.28
2023-05-14T07:20:31.470Z,99954.84
2023-05-14T07:22:58.347Z,99936.09
2023-05-14T07:25:25.455Z,99953.69
2023-05-14T07:27:52.465Z,99965.94
2023-05-14T07:30:19.920Z,99961.81
2023-05-14T07:32:46.867Z,99952.63
2023-05-14T07:35:13.931Z,99967.06
2023-05-14T07:37:41.029Z,99963.28
2023-05-14T07:40:08.509Z,99966.69
2023-05-14T07:42:37.280Z,99964.06
2023-05-14T07:45:05.789Z,99964.06
2023-05-14T07:47:33.020Z,99962.56
2023-05-14T07:50:00.525Z,99962.63
2023-05-14T07:52:27.539Z,99965.69
2023-05-14T07:54:55.261Z,99957.78
2023-05-14T07:57:22.340Z,99963.00
2023-05-14T07:59:49.883Z,99962.66
2023-05-14T08:02:17.746Z,99967.06
2023-05-14T08:04:45.191Z,99973.91
2023-05-14T08:07:12.133Z,99981.31
2023-05-14T08:09:39.456Z,99973.91
2023-05-14T08:12:06.857Z,99974.88
2023-05-14T08:14:33.788Z,99976.16
2023-05-14T08:17:00.813Z,99970.19
2023-05-14T08:19:28.074Z,99976.59
2023-05-14T08:21:54.950Z,99978.13
2023-05-14T08:24:21.823Z,99976.31
2023-05-14T08:26:48.954Z,99977.59
2023-05-14T08:29:16.784Z,99964.88
2023-05-14T08:31:44.070Z,99956.97
2023-05-14T08:34:11.015Z,99956.16
2023-05-14T08:36:39.078Z,99963.00
2023-05-14T08:39:07.761Z,99953.81
2023-05-14T08:41:35.784Z,99952.34
2023-05-14T08:44:05.833Z,99965.97
2023-05-14T08:46:33.987Z,99974.47
2023-05-14T08:49:09.137Z,99982.09
2023-05-14T08:51:36.547Z,99986.25
2023-05-14T08:54:04.173Z,99988.88
2023-05-14T08:56:33.471Z,99985.97
2023-05-14T08:59:01.072Z,99964.19
2023-05-14T09:01:29.053Z,99965.31
2023-05-14T09:04:21.223Z,99960.63
2023-05-14T09:06:53.750Z,99964.16
2023-05-14T09:09:47.274Z,99959.03
2023-05-14T09:12:14.884Z,99956.78
2023-05-14T09:14:41.979Z,99968.03
2023-05-14T09:17:09.265Z,99961.19
2023-05-14T09:19:36.180Z,99961.28
2023-05-14T09:22:09.298Z,99952.28
2023-05-14T09:24:36.385Z,99958.19
2023-05-14T09:27:04.333Z,99954.81
2023-05-14T09:29:31.835Z,99948.94
2023-05-14T09:32:00.702Z,99954.97
2023-05-14T09:34:29.499Z,99946.59
2023-05-14T09:37:01.396Z,99938.47
2023-05-14T09:39:29.341Z,99949.41
2023-05-14T09:41:57.026Z,99947.94
2023-05-14T09:44:24.912Z,99951.06
2023-05-14T09:46:53.066Z,99941.59
2023-05-14T09:49:20.452Z,99957.16
2023-05-14T09:51:49.608Z,99946.84
2023-05-14T09:54:16.708Z,99953.25
2023-05-14T09:56:44.273Z,99952.59
2023-05-14T09:59:11.568Z,99943.09
2023-05-14T10:01:39.910Z,99950.31
2023-05-14T10:04:07.853Z,99949.72
2023-05-14T10:06:37.937Z,99947.50
2023-05-14T10:09:10.268Z,99949.88
2023-05-14T10:11:39.284Z,99952.06
2023-05-14T10:14:20.841Z,99948.44
2023-05-14T10:16:50.997Z,99943.59
2023-05-14T10:19:21.135Z,99951.72
2023-05-14T10:22:04.486Z,99942.47
2023-05-14T10:24:32.471Z,99944.00
2023-05-14T10:26:59.569Z,99942.81
2023-05-14T10:29:37.802Z,99941.25
2023-05-14T10:32:07.146Z,99938.81
2023-05-14T10:34:41.297Z,99923.22
2023-05-14T10:37:10.417Z,99931.88
2023-05-14T10:40:08.825Z,99923.97
2023-05-14T10:42:43.595Z,99926.69
2023-05-14T10:45:27.030Z,99918.56
2023-05-14T10:47:54.140Z,99913.44
2023-05-14T10:51:08.585Z,99915.78
2023-05-14T10:54:28.979Z,99910.72
2023-05-14T10:56:59.489Z,99871.81
2023-05-14T10:59:29.435Z,99871.53
2023-05-14T11:01:59.486Z,99873.78
2023-05-14T11:04:31.203Z,99869.63
2023-05-14T11:06:59.515Z,99864.81
2023-05-14T11:09:27.009Z,99862.59
2023-05-14T11:11:54.616Z,99857.75
2023-05-14T11:14:22.859Z,99847.94
2023-05-14T11:16:50.477Z,99847.13
2023-05-14T11:19:21.967Z,99844.06
2023-05-14T11:21:48.717Z,99838.22
2023-05-14T11:24:15.878Z,99823.41
2023-05-14T11:26:42.876Z,99814.69
2023-05-14T11:29:10.762Z,99814.63
2023-05-14T11:31:37.872Z,99806.53
2023-05-14T11:34:07.422Z,99809.09
2023-05-14T11:36:36.810Z,99795.25
2023-05-14T11:39:03.732Z,99774.78
2023-05-14T11:41:31.446Z,99784.59
2023-05-14T11:43:58.899Z,99795.47
2023-05-14T11:46:26.283Z,99794.78
2023-05-14T11:48:53.250Z,99802.47
2023-05-14T11:51:21.424Z,99794.56
2023-05-14T11:53:48.706Z,99801.19
2023-05-14T11:56:16.048Z,99809.84
2023-05-14T11:58:48.379Z,99799.56
2023-05-14T12:01:15.904Z,99789.75
2023-05-14T12:03:43.351Z,99792.63
2023-05-14T12:06:10.277Z,99802.69
2023-05-14T12:08:37.739Z,99797.97
2023-05-14T12:11:04.643Z,99804.03
2023-05-14T12:13:32.671Z,99809.31
2023-05-14T12:16:02.470Z,99797.97
2023-05-14T12:18:31.490Z,99797.94
2023-05-14T12:21:08.538Z,99787.69
2023-05-14T12:23:35.634Z,99785.53
2023-05-14T12:26:06.380Z,99757.66
2023-05-14T12:28:36.917Z,99753.63
2023-05-14T12:31:05.056Z,99750.47
2023-05-14T12:33:32.099Z,99736.88
2023-05-14T12:36:19.891Z,99718.41
2023-05-14T12:38:47.975Z,99728.16
2023-05-14T12:41:15.047Z,99721.03
2023-05-14T12:43:44.357Z,99699.56
2023-05-14T12:46:11.431Z,99709.38
2023-05-14T12:48:38.408Z,99716.47
2023-05-14T12:51:05.273Z,99702.78
2023-05-14T12:53:32.340Z,99712.47
2023-05-14T12:55:59.565Z,99717.06
2023-05-14T12:58:26.727Z,99721.44
2023-05-14T13:00:53.840Z,99691.81
2023-05-14T13:03:21.263Z,99683.03
2023-05-14T13:05:48.390Z,99690.78
2023-05-14T13:08:17.914Z,99688.53
2023-05-14T13:10:45.293Z,99701.50
2023-05-14T13:13:12.480Z,99708.59
2023-05-14T13:15:39.430Z,99707.59
2023-05-14T13:18:06.864Z,99694.19
2023-05-14T13:20:34.466Z,99699.09
2023-05-14T13:23:01.428Z,99691.09
2023-05-14T13:25:28.578Z,99687.78
2023-05-14T13:27:56.080Z,99677.47
2023-05-14T13:30:22.964Z,99678.00
2023-05-14T13:32:50.149Z,99665.66
2023-05-14T13:35:17.530Z,99663.00
2023-05-14T13:37:44.417Z,99655.09
2023-05-14T13:40:11.695Z,99653.53
2023-05-14T13:42:39.925Z,99631.16
2023-05-14T13:45:07.459Z,99630.75
2023-05-14T13:47:34.583Z,99637.44
2023-05-14T13:50:01.398Z,99637.44
2023-05-14T13:52:28.593Z,99632.22
2023-05-14T13:54:56.491Z,99643.09
2023-05-14T13:57:23.542Z,99642.66
2023-05-14T13:59:50.778Z,99642.09
2023-05-14T14:02:17.997Z,99633.66
2023-05-14T14:04:44.930Z,99633.41
2023-05-14T14:07:11.866Z,99629.78
2023-05-14T14:09:38.884Z,99629.84
2023-05-14T14:12:06.804Z,99636.38
2023-05-14T14:14:33.738Z,99636.03
2023-05-14T14:17:01.076Z,99644.59
2023-05-14T14:19:27.911Z,99632.22
2023-05-14T14:21:54.821Z,99638.94
2023-05-14T14:24:21.889Z,99632.41
2023-05-14T14:26:48.712Z,99614.91
2023-05-14T14:29:15.619Z,99613.63
2023-05-14T14:31:43.827Z,99597.59
2023-05-14T14:34:10.972Z,99600.78
2023-05-14T14:36:38.194Z,99599.69
2023-05-14T14:39:05.269Z,99612.78
2023-05-14T14:41:32.244Z,99615.59
2023-05-14T14:43:59.234Z,99603.28
2023-05-14T14:46:26.550Z,99597.75
2023-05-14T14:48:53.514Z,99601.25
2023-05-14T14:51:20.570Z,99586.28
2023-05-14T14:53:47.843Z,99603.34
2023-05-14T14:56:14.722Z,99590.34
2023-05-14T14:58:41.718Z,99598.16
2023-05-14T15:01:08.729Z,99607.88
2023-05-14T15:03:36.467Z,99585.88
2023-05-14T15:06:03.384Z,99610.28
2023-05-14T15:08:30.280Z,99604.66
2023-05-14T15:10:57.876Z,99618.84
2023-05-14T15:13:25.935Z,99617.63
2023-05-14T15:15:53.154Z,99603.91
2023-05-14T15:18:20.645Z,99607.34
2023-05-14T15:20:47.736Z,99611.88
2023-05-14T15:23:14.765Z,99598.69
2023-05-14T15:25:41.746Z,99590.41
2023-05-14T15:28:08.803Z,99595.75
2023-05-14T15:30:35.903Z,99590.22
2023-05-14T15:33:02.952Z,99604.84
2023-05-14T15:35:30.020Z,99590.28
2023-05-14T15:37:59.918Z,99582.13
2023-05-14T15:40:29.681Z,99603.06
2023-05-14T15:42:56.708Z,99602.25
2023-05-14T15:45:23.674Z,99591.06
2023-05-14T15:47:51.196Z,99606.72
2023-05-14T15:50:17.970Z,99599.50
2023-05-14T15:52:44.928Z,99593.84
2023-05-14T15:55:12.050Z,99592.63
2023-05-14T15:57:39.310Z,99595.88
2023-05-14T16:00:12.805Z,99606.28
2023-05-14T16:06:23.133Z,99583.44
2023-05-14T16:08:50.115Z,99596.28
2023-05-14T16:11:17.272Z,99592.97
2023-05-14T16:16:30.653Z,99576.31
2023-05-14T16:18:57.847Z,99575.06
2023-05-14T16:21:24.699Z,99591.50
2023-05-14T16:24:03.755Z,99600.16
2023-05-14T16:27:21.185Z,99610.78
2023-05-14T16:29:48.667Z,99620.72
2023-05-14T16:32:16.009Z,99615.59
2023-05-14T16:34:49.786Z,99596.50
2023-05-14T16:37:17.663Z,99590.69
2023-05-14T16:39:44.817Z,99604.38
2023-05-14T16:42:11.925Z,99603.03
2023-05-14T16:44:39.162Z,99604.13
2023-05-14T16:47:06.586Z,99586.00
2023-05-14T16:49:33.863Z,99591.59
2023-05-14T16:52:00.828Z,99594.66
2023-05-14T16:54:27.872Z,99595.75
2023-05-14T16:56:54.678Z,99586.94
2023-05-14T16:59:21.731Z,99584.88
2023-05-14T17:01:48.674Z,99584.31
2023-05-14T17:04:16.158Z,99588.00
2023-05-14T17:06:43.315Z,99591.09
2023-05-14T17:09:10.383Z,99599.81
2023-05-14T17:11:43.560Z,99596.94
2023-05-14T17:15:05.687Z,99586.94
2023-05-14T17:17:33.912Z,99590.09
2023-05-14T17:20:01.043Z,99585.69
2023-05-14T17:22:27.991Z,99581.94
2023-05-14T17:24:54.977Z,99581.13
2023-05-14T17:27:22.060Z,99588.13
2023-05-14T17:29:51.198Z,99588.66
2023-05-14T17:32:18.569Z,99573.13
2023-05-14T17:34:45.601Z,99574.19
2023-05-14T17:37:12.878Z,99575.72
2023-05-14T17:39:39.900Z,99592.53
2023-05-14T17:42:07.028Z,99582.81
2023-05-14T17:44:34.225Z,99583.63
2023-05-14T17:47:01.522Z,99586.22
2023-05-14T17:49:28.780Z,99582.81
2023-05-14T17:52:56.808Z,99581.00
2023-05-14T17:57:02.240Z,99591.16
2023-05-14T17:59:29.867Z,99587.47
2023-05-14T18:01:56.868Z,99593.25
2023-05-14T18:04:23.710Z,99591.53
2023-05-14T18:06:50.930Z,99590.00
2023-05-14T18:09:17.937Z,99591.69
2023-05-14T18:14:51.882Z,99576.34
2023-05-14T18:17:18.952Z,99572.19
2023-05-14T18:19:46.102Z,99577.53
2023-05-14T18:22:13.487Z,99585.75
2023-05-14T18:24:40.670Z,99589.59
2023-05-14T18:27:08.323Z,99577.81
2023-05-14T18:29:35.241Z,99584.97
2023-05-14T18:32:02.151Z,99576.53
2023-05-14T18:38:54.751Z,99585.59
2023-05-14T18:41:21.768Z,99550.53
2023-05-14T18:43:48.649Z,99570.94
2023-05-14T18:46:15.807Z,99560.97
2023-05-14T18:48:42.912Z,99569.75
2023-05-14T18:51:11.375Z,99556.34
2023-05-14T18:53:38.581Z,99576.50
2023-05-14T18:56:05.572Z,99581.00
2023-05-14T18:58:32.732Z,99578.81
2023-05-14T19:00:59.757Z,99571.63
2023-05-14T19:03:26.986Z,99568.41
2023-05-14T19:05:54.406Z,99571.63
2023-05-14T19:08:21.353Z,99561.66
2023-05-14T19:10:48.695Z,99554.94
2023-05-14T19:13:19.466Z,99553.81
2023-05-14T19:16:09.356Z,99548.97
2023-05-14T19:18:36.346Z,99547.59
2023-05-14T19:21:12.401Z,99540.75
2023-05-14T19:23:39.462Z,99540.50
2023-05-14T19:26:07.335Z,99547.44
2023-05-14T19:28:34.338Z,99541.06
2023-05-14T19:31:01.305Z,99531.25
2023-05-14T19:33:31.880Z,99526.75
2023-05-14T19:35:59.791Z,99515.16
2023-05-14T19:38:26.717Z,99506.72
2023-05-14T19:40:59.979Z,99496.31
2023-05-14T19:43:33.877Z,99501.06
2023-05-14T19:46:01.632Z,99488.44
2023-05-14T19:48:33.583Z,99492.63
2023-05-14T19:51:32.534Z,99488.69
2023-05-14T19:54:04.436Z,99477.34
2023-05-14T19:56:34.641Z,99466.47
2023-05-14T19:59:02.593Z,99466.69
2023-05-14T20:01:29.672Z,99466.94
2023-05-14T20:03:56.711Z,99469.97
2023-05-14T20:06:23.592Z,99449.63
2023-05-14T20:08:51.562Z,99471.97
2023-05-14T20:12:36.722Z,99482.06
2023-05-14T20:14:22.420Z,99477.22
2023-05-14T20:16:52.533Z,99481.34
2023-05-14T20:19:21.493Z,99470.00
2023-05-14T20:21:48.766Z,99471.16
2023-05-14T20:24:15.646Z,99462.81
2023-05-14T20:27:08.587Z,99467.44
2023-05-14T20:29:51.388Z,99458.13
2023-05-14T20:36:05.238Z,99446.44
2023-05-14T20:38:34.448Z,99443.56
2023-05-14T20:41:10.913Z,99442.06
2023-05-14T20:43:37.904Z,99441.16
2023-05-14T20:46:07.294Z,99434.09
2023-05-14T20:48:34.422Z,99439.06
2023-05-14T20:51:01.929Z,99430.97
2023-05-14T20:53:28.882Z,99430.06
2023-05-14T20:55:56.269Z,99423.00
2023-05-14T20:58:23.214Z,99433.97
2023-05-14T21:00:50.344Z,99427.75
2023-05-14T21:03:17.576Z,99436.41
2023-05-14T21:05:47.370Z,99418.94
2023-05-14T21:08:14.165Z,99418.50
2023-05-14T21:10:41.094Z,99412.00
2023-05-14T21:13:08.281Z,99411.09
2023-05-14T21:15:35.248Z,99403.69
2023-05-14T21:18:02.260Z,99393.28
2023-05-14T21:20:29.141Z,99396.53
2023-05-14T21:22:56.228Z,99403.81
2023-05-14T21:25:23.334Z,99406.25
2023-05-14T21:27:50.730Z,99408.66
2023-05-14T21:30:17.700Z,99399.06
2023-05-14T21:32:44.728Z,99407.41
2023-05-14T21:35:11.756Z,99392.47
2023-05-14T21:37:39.976Z,99379.41
2023-05-14T21:40:12.337Z,99386.94
2023-05-14T21:42:42.337Z,99401.84
2023-05-14T21:45:09.607Z,99390.75
2023-05-14T21:47:37.388Z,99380.13
2023-05-14T21:50:05.219Z,99365.56
2023-05-14T21:52:32.230Z,99371.22
2023-05-14T21:54:59.111Z,99383.00
2023-05-14T21:57:28.384Z,99369.25
2023-05-14T21:59:55.824Z,99378.84
2023-05-14T22:02:23.082Z,99368.44
2023-05-14T22:04:50.479Z,99373.19
2023-05-14T22:07:17.675Z,99369.94
2023-05-14T22:09:44.663Z,99361.84
2023-05-14T22:12:11.628Z,99365.78
2023-05-14T22:14:38.555Z,99353.06
2023-05-14T22:17:05.658Z,99366.03
2023-05-14T22:19:33.061Z,99372.03
2023-05-14T22:22:00.361Z,99354.47
2023-05-14T22:24:27.372Z,99369.38
2023-05-14T22:26:54.716Z,99354.47
2023-05-14T22:29:21.601Z,99353.66
2023-05-14T22:31:48.657Z,99364.06
2023-05-14T22:34:16.122Z,99365.78
2023-05-14T22:36:42.946Z,99359.31
2023-05-14T22:39:11.464Z,99367.41
2023-05-14T22:41:40.557Z,99368.34
2023-05-14T22:44:07.525Z,99372.03
2023-05-14T22:46:34.762Z,99355.38
2023-05-14T22:49:01.662Z,99366.03
2023-05-14T22:51:28.648Z,99356.88
2023-05-14T22:53:55.679Z,99361.41
2023-05-14T22:56:22.682Z,99348.91
2023-05-14T22:58:49.650Z,99337.13
2023-05-14T23:01:16.613Z,99329.16
2023-05-14T23:03:43.461Z,99337.03
2023-05-14T23:06:13.707Z,99355.16
2023-05-14T23:08:41.222Z,99345.56
2023-05-14T23:11:08.104Z,99345.91
2023-05-14T23:13:35.584Z,99335.28
2023-05-14T23:16:02.732Z,99319.34
2023-05-14T23:18:30.920Z,99310.56
2023-05-14T23:20:58.178Z,99316.34
2023-05-14T23:23:25.334Z,99312.19
2023-05-14T23:25:52.427Z,99314.25
2023-05-14T23:28:19.748Z,99301.09
2023-05-14T23:30:46.556Z,99290.22
2023-05-14T23:33:13.594Z,99300.53
2023-05-14T23:35:40.839Z,99303.31
2023-05-14T23:38:08.265Z,99301.19
2023-05-14T23:40:35.557Z,99304.09
2023-05-14T23:43:02.542Z,99306.97
2023-05-14T23:45:30.382Z,99285.50
2023-05-14T23:47:58.552Z,99301.09
2023-05-14T23:50:25.752Z,99308.22
2023-05-14T23:52:53.876Z,99303.38
2023-05-14T23:55:20.874Z,99307.06
2023-05-14T23:57:49.062Z,99301.78
